createdAt,value
2018-12-24T00:03:45.071Z,86.30
2018-12-24T00:07:50.073Z,86.80
2018-12-24T00:11:55.008Z,87.60
2018-12-24T00:15:59.976Z,86.80
2018-12-24T00:20:05.108Z,87.30
2018-12-24T00:24:10.086Z,88.30
2018-12-24T00:28:15.079Z,87.60
2018-12-24T00:32:20.029Z,88.10
2018-12-24T00:36:25.000Z,88.10
2018-12-24T00:40:29.971Z,88.70
2018-12-24T00:44:34.939Z,88.50
2018-12-24T00:48:39.921Z,88.90
2018-12-24T00:52:44.861Z,88.70
2018-12-24T00:56:49.855Z,89.40
2018-12-24T01:00:54.875Z,89.60
2018-12-24T01:04:59.891Z,88.60
2018-12-24T01:09:05.594Z,88.20
2018-12-24T01:13:10.630Z,88.10
2018-12-24T01:17:15.672Z,87.40
2018-12-24T01:21:20.678Z,87.10
2018-12-24T01:25:25.660Z,87.50
2018-12-24T01:29:30.636Z,87.20
2018-12-24T01:33:35.618Z,86.90
2018-12-24T01:37:40.603Z,86.90
2018-12-24T01:41:45.646Z,86.30
2018-12-24T01:45:50.631Z,86.50
2018-12-24T01:49:55.626Z,86.40
2018-12-24T01:54:00.568Z,86.40
2018-12-24T01:58:05.551Z,86.50
2018-12-24T02:02:10.523Z,86.00
2018-12-24T02:06:15.496Z,85.70
2018-12-24T02:10:20.483Z,85.80
2018-12-24T02:14:25.439Z,85.60
2018-12-24T02:18:30.480Z,85.60
2018-12-24T02:22:35.458Z,85.50
2018-12-24T02:26:40.473Z,84.90
2018-12-24T02:30:45.463Z,85.40
2018-12-24T02:34:50.459Z,85.30
2018-12-24T02:38:55.406Z,85.30
2018-12-24T02:43:00.527Z,85.40
2018-12-24T02:47:05.503Z,85.30
2018-12-24T02:51:10.488Z,85.30
2018-12-24T02:55:15.463Z,85.40
2018-12-24T02:59:20.374Z,85.30
2018-12-24T03:03:25.350Z,85.50
2018-12-24T03:07:30.338Z,84.70
2018-12-24T03:11:35.381Z,85.40
2018-12-24T03:15:40.335Z,85.60
2018-12-24T03:19:45.299Z,85.60
2018-12-24T03:23:50.286Z,85.40
2018-12-24T03:27:55.268Z,85.10
2018-12-24T03:32:00.240Z,84.60
2018-12-24T03:36:05.219Z,84.30
2018-12-24T03:40:10.169Z,84.40
2018-12-24T03:44:15.159Z,84.50
2018-12-24T03:48:20.151Z,84.00
2018-12-24T03:52:25.119Z,83.60
2018-12-24T03:56:30.091Z,83.60
2018-12-24T04:00:35.049Z,83.80
2018-12-24T04:04:40.027Z,83.60
2018-12-24T04:08:44.973Z,83.70
2018-12-24T04:12:49.948Z,83.60
2018-12-24T04:16:54.924Z,83.60
2018-12-24T04:20:59.954Z,83.70
2018-12-24T04:25:04.918Z,83.60
2018-12-24T04:29:09.909Z,83.70
2018-12-24T04:33:14.906Z,83.70
2018-12-24T04:37:19.891Z,83.50
2018-12-24T04:41:24.843Z,83.70
2018-12-24T04:45:29.817Z,83.80
2018-12-24T04:49:36.293Z,83.80
2018-12-24T04:53:41.283Z,83.80
2018-12-24T04:57:46.255Z,84.10
2018-12-24T05:01:51.156Z,84.00
2018-12-24T05:05:56.183Z,83.80
2018-12-24T05:10:01.163Z,83.90
2018-12-24T05:14:06.152Z,84.00
2018-12-24T05:18:11.161Z,84.20
2018-12-24T05:22:16.144Z,84.10
2018-12-24T05:26:21.116Z,84.10
2018-12-24T05:30:26.071Z,84.20
2018-12-24T05:34:31.036Z,84.50
2018-12-24T05:38:35.999Z,84.20
2018-12-24T05:42:40.932Z,84.10
2018-12-24T05:46:45.882Z,83.60
2018-12-24T05:50:50.852Z,84.20
2018-12-24T05:54:55.839Z,84.10
2018-12-24T05:59:00.814Z,84.10
2018-12-24T06:03:05.775Z,83.60
2018-12-24T06:07:10.765Z,83.40
2018-12-24T06:11:15.756Z,83.10
2018-12-24T06:15:20.735Z,82.90
2018-12-24T06:19:25.727Z,82.90
2018-12-24T06:23:30.702Z,82.80
2018-12-24T06:27:35.731Z,82.70
2018-12-24T06:31:40.704Z,82.40
2018-12-24T06:35:45.697Z,82.30
2018-12-24T06:39:50.670Z,82.50
2018-12-24T06:43:55.615Z,82.50
2018-12-24T06:48:00.591Z,82.50
2018-12-24T06:52:05.539Z,82.60
2018-12-24T06:56:10.490Z,82.50
2018-12-24T07:00:15.482Z,82.40
2018-12-24T07:04:20.432Z,82.50
2018-12-24T07:08:25.405Z,81.50
2018-12-24T07:12:31.167Z,82.20
2018-12-24T07:16:36.203Z,82.10
2018-12-24T07:20:41.244Z,81.60
2018-12-24T07:24:46.195Z,81.90
2018-12-24T07:28:58.785Z,82.20
2018-12-24T07:32:58.012Z,82.00
2018-12-24T07:37:02.976Z,81.90
2018-12-24T07:41:07.944Z,82.10
2018-12-24T07:45:12.892Z,82.30
2018-12-24T07:49:17.864Z,82.20
2018-12-24T07:53:22.860Z,82.10
2018-12-24T07:57:27.876Z,80.50
2018-12-24T08:01:32.824Z,80.50
2018-12-24T08:05:37.780Z,80.30
2018-12-24T08:09:42.763Z,80.40
2018-12-24T08:13:47.903Z,80.50
2018-12-24T08:17:53.279Z,79.90
2018-12-24T08:21:58.231Z,79.80
2018-12-24T08:26:03.241Z,81.10
2018-12-24T08:30:08.248Z,79.70
2018-12-24T08:34:13.260Z,79.80
2018-12-24T08:38:18.274Z,79.70
2018-12-24T08:42:23.259Z,79.40
2018-12-24T08:46:28.224Z,79.60
2018-12-24T08:50:33.180Z,79.80
2018-12-24T08:54:38.184Z,79.30
2018-12-24T08:59:26.115Z,79.50
2018-12-24T09:03:30.638Z,79.80
2018-12-24T09:07:35.184Z,79.80
2018-12-24T09:11:39.704Z,79.50
2018-12-24T09:15:44.226Z,79.40
2018-12-24T09:19:49.777Z,79.30
2018-12-24T09:23:54.360Z,77.80
2018-12-24T09:27:59.028Z,78.00
2018-12-24T09:32:03.508Z,78.20
2018-12-24T09:36:08.022Z,78.70
2018-12-24T09:40:14.683Z,78.50
2018-12-24T09:44:19.228Z,78.10
2018-12-24T09:48:23.783Z,78.30
2018-12-24T09:52:31.091Z,78.70
2018-12-24T09:56:35.618Z,78.70
2018-12-24T10:00:40.123Z,78.50
2018-12-24T10:04:53.291Z,78.30
2018-12-24T10:08:58.532Z,78.40
2018-12-24T10:13:03.167Z,78.00
2018-12-24T10:17:07.706Z,77.90
2018-12-24T10:21:12.243Z,78.00
2018-12-24T10:25:16.764Z,78.30
2018-12-24T10:29:21.267Z,78.00
2018-12-24T10:33:25.864Z,78.20
2018-12-24T10:37:30.337Z,77.80
2018-12-24T10:41:35.094Z,78.50
2018-12-24T10:45:39.655Z,77.90
2018-12-24T10:49:44.205Z,77.50
2018-12-24T10:53:48.689Z,78.10
2018-12-24T10:57:53.199Z,77.90
2018-12-24T11:01:57.738Z,77.90
2018-12-24T11:06:02.256Z,77.90
2018-12-24T11:10:10.121Z,77.80
2018-12-24T11:14:14.605Z,77.60
2018-12-24T11:18:19.172Z,77.40
2018-12-24T11:22:23.710Z,77.50
2018-12-24T11:26:28.211Z,77.40
2018-12-24T11:30:32.711Z,77.40
2018-12-24T11:34:37.182Z,76.60
2018-12-24T11:38:41.703Z,77.00
2018-12-24T11:42:46.228Z,77.30
2018-12-24T11:46:50.731Z,77.20
2018-12-24T11:50:55.531Z,77.60
2018-12-24T11:55:00.004Z,77.30
2018-12-24T11:59:04.519Z,76.70
2018-12-24T12:03:09.055Z,76.70
2018-12-24T12:07:13.569Z,76.70
2018-12-24T12:11:18.085Z,75.90
2018-12-24T12:15:22.600Z,76.20
2018-12-24T12:19:27.175Z,76.70
2018-12-24T12:23:31.702Z,76.40
2018-12-24T12:27:36.294Z,75.20
2018-12-24T12:31:40.825Z,75.80
2018-12-24T12:35:45.364Z,76.00
2018-12-24T12:39:49.834Z,75.20
2018-12-24T12:43:54.407Z,75.20
2018-12-24T12:47:58.984Z,75.80
2018-12-24T12:52:03.506Z,76.10
2018-12-24T12:56:08.018Z,76.10
2018-12-24T13:00:13.249Z,76.20
2018-12-24T13:04:17.858Z,75.60
2018-12-24T13:08:22.367Z,75.20
2018-12-24T13:12:26.879Z,74.70
2018-12-24T13:16:31.444Z,74.50
2018-12-24T13:20:35.971Z,76.20
2018-12-24T13:24:40.479Z,76.20
2018-12-24T13:28:45.004Z,76.40
2018-12-24T13:32:49.618Z,76.20
2018-12-24T13:36:54.143Z,74.90
2018-12-24T13:40:58.658Z,75.20
2018-12-24T13:45:03.197Z,75.00
2018-12-24T13:49:07.713Z,76.30
2018-12-24T13:53:12.259Z,76.30
2018-12-24T13:57:16.790Z,76.50
2018-12-24T14:01:21.279Z,76.40
2018-12-24T14:05:25.800Z,77.20
2018-12-24T14:09:30.312Z,77.30
2018-12-24T14:13:34.821Z,77.00
2018-12-24T14:17:39.371Z,77.30
2018-12-24T14:21:43.928Z,77.00
2018-12-24T14:25:48.414Z,76.90
2018-12-24T14:29:52.935Z,76.90
2018-12-24T14:33:57.487Z,77.00
2018-12-24T14:38:02.088Z,76.70
2018-12-24T14:42:06.575Z,77.00
2018-12-24T14:46:11.093Z,76.90
2018-12-24T14:50:15.614Z,77.20
2018-12-24T14:54:20.214Z,77.30
2018-12-24T14:58:24.740Z,76.80
2018-12-24T15:02:29.267Z,76.90
2018-12-24T15:06:33.784Z,77.20
2018-12-24T15:10:38.478Z,77.20
2018-12-24T15:14:42.994Z,77.50
2018-12-24T15:18:47.565Z,77.40
2018-12-24T15:22:52.047Z,77.50
2018-12-24T15:26:56.587Z,77.60
2018-12-24T15:31:01.127Z,77.50
2018-12-24T15:35:05.647Z,77.30
2018-12-24T15:39:10.166Z,77.50
2018-12-24T15:43:14.661Z,77.70
2018-12-24T15:47:19.184Z,77.70
2018-12-24T15:51:23.701Z,77.90
2018-12-24T15:55:28.220Z,77.60
2018-12-24T15:59:32.739Z,77.90
2018-12-24T16:03:37.376Z,77.80
2018-12-24T16:07:41.894Z,77.90
2018-12-24T16:11:46.458Z,77.90
2018-12-24T16:15:50.991Z,77.80
2018-12-24T16:19:55.551Z,77.80
2018-12-24T16:24:00.035Z,77.80
2018-12-24T16:28:04.564Z,77.90
2018-12-24T16:32:09.083Z,78.10
2018-12-24T16:36:13.630Z,77.90
2018-12-24T16:40:18.159Z,78.10
2018-12-24T16:44:22.639Z,78.00
2018-12-24T16:48:27.160Z,78.10
2018-12-24T16:52:31.812Z,78.10
2018-12-24T16:56:36.328Z,78.00
2018-12-24T17:00:40.851Z,78.50
2018-12-24T17:04:45.354Z,78.40
2018-12-24T17:08:49.867Z,78.50
2018-12-24T17:12:54.468Z,78.70
2018-12-24T17:16:59.034Z,78.90
2018-12-24T17:21:03.542Z,78.90
2018-12-24T17:25:08.031Z,78.90
2018-12-24T17:29:12.592Z,79.00
2018-12-24T17:33:17.115Z,79.20
2018-12-24T17:37:21.663Z,79.70
2018-12-24T17:41:26.214Z,79.30
2018-12-24T17:45:30.736Z,79.50
2018-12-24T17:49:35.230Z,79.70
2018-12-24T17:53:39.791Z,79.60
2018-12-24T17:57:44.298Z,79.70
2018-12-24T18:01:48.848Z,79.80
2018-12-24T18:05:53.378Z,79.80
2018-12-24T18:09:57.859Z,80.10
2018-12-24T18:14:02.378Z,80.40
2018-12-24T18:18:06.947Z,80.20
2018-12-24T18:22:11.465Z,80.30
2018-12-24T18:26:15.988Z,80.30
2018-12-24T18:30:20.497Z,80.20
2018-12-24T18:34:25.043Z,80.20
2018-12-24T18:38:29.575Z,80.10
2018-12-24T18:42:34.124Z,79.90
2018-12-24T18:46:38.641Z,80.00
2018-12-24T18:50:43.127Z,80.00
2018-12-24T18:54:47.694Z,80.00
2018-12-24T18:58:52.219Z,80.00
2018-12-24T19:02:56.751Z,80.30
2018-12-24T19:07:01.307Z,80.40
2018-12-24T19:11:05.788Z,80.50
2018-12-24T19:15:10.307Z,80.60
2018-12-24T19:19:14.885Z,80.70
2018-12-24T19:23:19.493Z,80.70
2018-12-24T19:27:23.963Z,80.80
2018-12-24T19:31:28.598Z,80.40
2018-12-24T19:35:33.114Z,80.50
2018-12-24T19:39:37.640Z,80.40
2018-12-24T19:43:42.184Z,80.40
2018-12-24T19:47:50.052Z,80.40
2018-12-24T19:51:52.834Z,80.40
2018-12-24T19:55:57.368Z,80.40
2018-12-24T20:00:01.886Z,79.70
2018-12-24T20:04:06.391Z,80.30
2018-12-24T20:08:10.927Z,81.10
2018-12-24T20:12:15.447Z,80.30
2018-12-24T20:16:19.975Z,80.40
2018-12-24T20:20:24.536Z,80.60
2018-12-24T20:24:29.019Z,80.60
2018-12-24T20:28:33.575Z,80.50
2018-12-24T20:32:38.116Z,80.70
2018-12-24T20:36:42.634Z,80.80
2018-12-24T20:40:47.135Z,80.80
2018-12-24T20:44:51.671Z,81.00
2018-12-24T20:48:56.186Z,80.70
2018-12-24T20:53:00.748Z,80.60
2018-12-24T20:57:05.317Z,80.60
2018-12-24T21:01:09.830Z,80.50
2018-12-24T21:05:14.358Z,80.50
2018-12-24T21:09:18.896Z,80.80
2018-12-24T21:13:23.407Z,80.90
2018-12-24T21:17:27.935Z,80.80
2018-12-24T21:21:32.464Z,80.80
2018-12-24T21:25:37.000Z,80.90
2018-12-24T21:29:41.553Z,80.90
2018-12-24T21:33:46.018Z,80.80
2018-12-24T21:37:50.539Z,80.80
2018-12-24T21:41:55.058Z,80.70
2018-12-24T21:45:59.587Z,80.70
2018-12-24T21:50:04.115Z,80.70
2018-12-24T21:54:08.595Z,80.90
2018-12-24T21:58:13.207Z,80.80
2018-12-24T22:02:17.723Z,80.90
2018-12-24T22:06:22.247Z,80.70
2018-12-24T22:10:26.779Z,80.90
2018-12-24T22:14:31.336Z,81.00
2018-12-24T22:18:35.896Z,80.90
2018-12-24T22:22:40.447Z,80.90
2018-12-24T22:26:44.967Z,81.60
2018-12-24T22:30:49.497Z,80.90
2018-12-24T22:34:53.966Z,81.00
2018-12-24T22:38:58.488Z,81.00
2018-12-24T22:43:03.053Z,80.90
2018-12-24T22:47:07.596Z,80.90
2018-12-24T22:51:12.109Z,81.00
2018-12-24T22:55:16.643Z,81.00
2018-12-24T22:59:21.119Z,81.10
2018-12-24T23:03:25.623Z,81.10
2018-12-24T23:07:30.154Z,80.90
2018-12-24T23:11:34.674Z,81.00
2018-12-24T23:15:39.161Z,81.00
2018-12-24T23:19:43.768Z,81.00
2018-12-24T23:23:48.275Z,81.00
2018-12-24T23:27:52.807Z,80.90
2018-12-24T23:31:57.347Z,80.90
2018-12-24T23:36:01.826Z,80.00
2018-12-24T23:40:06.371Z,80.70
2018-12-24T23:44:10.900Z,80.70
2018-12-24T23:48:15.443Z,80.70
2018-12-24T23:52:19.979Z,80.80
2018-12-24T23:56:24.474Z,80.80
